Time;durP1;ratioP1;P1;durP2;ratioP2;P2;SDS_P1;SDS_P2;PMS_P1;PMS_P2;Temp;Humidity;BMP_temperature;BMP_pressure;BME280_temperature;BME280_humidity;BME280_pressure;Samples;Min_cycle;Max_cycle;Signal;HPM_P1;HPM_P2
2021/08/01 00:00:35;;;;;;;;;;;;;;;25.20;59.74;99684.88;4405897;32;19997;-85
2021/08/01 00:03:02;;;;;;;;;;;;;;;25.27;59.15;99687.97;4392201;32;20031;-86
2021/08/01 00:05:29;;;;;;;;;;;;;;;25.30;58.97;99693.94;4405797;32;20019;-86
2021/08/01 00:08:16;;;;;;;;;;;;;;;25.25;57.70;99689.91;4406164;32;20001;-86
2021/08/01 00:10:43;;;;;;;;;;;;;;;25.20;57.15;99681.34;4405904;32;19978;-86
2021/08/01 00:13:10;;;;;;;;;;;;;;;25.09;57.49;99693.75;4405932;32;20072;-86
2021/08/01 00:15:37;;;;;;;;;;;;;;;24.76;59.73;99696.31;4405845;32;19973;-86
2021/08/01 00:18:03;;;;;;;;;;;;;;;24.49;59.45;99694.75;4405454;32;20040;-85
2021/08/01 00:20:30;;;;;;;;;;;;;;;24.62;59.84;99692.88;4405587;32;19994;-86
2021/08/01 00:22:57;;;;;;;;;;;;;;;24.24;60.73;99687.66;4391826;32;19997;-86
2021/08/01 00:25:24;;;;;;;;;;;;;;;23.78;62.72;99681.09;4405635;32;20380;-86
2021/08/01 00:27:52;;;;;;;;;;;;;;;23.82;62.49;99667.47;4391829;32;20041;-85
2021/08/01 00:30:20;;;;;;;;;;;;;;;24.17;61.46;99663.06;4405555;32;20031;-84
2021/08/01 00:32:46;;;;;;;;;;;;;;;23.93;62.32;99663.03;4391716;32;20045;-86
2021/08/01 00:35:13;;;;;;;;;;;;;;;24.08;60.75;99661.06;4407580;32;20354;-86
2021/08/01 00:37:40;;;;;;;;;;;;;;;24.14;60.98;99659.75;4393827;32;20000;-85
2021/08/01 00:40:07;;;;;;;;;;;;;;;24.21;60.40;99675.31;4407680;32;20486;-84
2021/08/01 00:42:34;;;;;;;;;;;;;;;23.96;61.94;99689.66;4407903;32;20037;-86
2021/08/01 00:45:14;;;;;;;;;;;;;;;23.45;63.93;99708.47;4394105;32;20071;-85
2021/08/01 00:47:42;;;;;;;;;;;;;;;23.38;63.93;99722.41;4394160;32;20320;-85
2021/08/01 00:50:11;;;;;;;;;;;;;;;23.39;63.90;99719.63;4394022;32;19981;-85
2021/08/01 00:52:39;;;;;;;;;;;;;;;23.33;63.45;99726.28;4407807;32;20353;-85
2021/08/01 00:55:10;;;;;;;;;;;;;;;23.21;64.80;99745.88;4407644;32;19990;-85
2021/08/01 00:57:37;;;;;;;;;;;;;;;23.62;63.11;99750.19;4407812;32;19990;-85
2021/08/01 01:00:05;;;;;;;;;;;;;;;23.41;64.41;99743.63;4407986;32;20384;-84
2021/08/01 01:02:40;;;;;;;;;;;;;;;23.06;66.20;99729.03;4394375;32;20001;-85
2021/08/01 01:05:08;;;;;;;;;;;;;;;22.81;67.65;99719.06;4408816;32;19999;-84
2021/08/01 01:07:40;;;;;;;;;;;;;;;22.88;67.73;99701.66;4408128;32;19985;-85
2021/08/01 01:10:33;;;;;;;;;;;;;;;22.37;70.09;99676.53;4393614;32;20278;-84
2021/08/01 01:13:10;;;;;;;;;;;;;;;22.10;71.58;99663.13;4391064;32;20041;-84
2021/08/01 01:15:41;;;;;;;;;;;;;;;22.26;71.33;99674.53;4393897;32;20441;-85
2021/08/01 01:18:08;;;;;;;;;;;;;;;22.63;69.47;99672.13;4407414;32;20019;-85
2021/08/01 01:20:48;;;;;;;;;;;;;;;23.40;66.88;99677.59;4393864;32;20006;-85
2021/08/01 01:23:18;;;;;;;;;;;;;;;23.33;66.92;99693.25;4407587;32;20044;-85
2021/08/01 01:25:48;;;;;;;;;;;;;;;23.02;68.13;99687.31;4407626;32;19997;-85
2021/08/01 01:28:20;;;;;;;;;;;;;;;22.99;68.31;99690.22;4393710;32;19970;-84
2021/08/01 01:30:51;;;;;;;;;;;;;;;23.12;67.67;99691.09;4393818;32;20279;-85
2021/08/01 01:33:32;;;;;;;;;;;;;;;23.45;66.37;99680.81;4393629;32;19993;-84
2021/08/01 01:36:01;;;;;;;;;;;;;;;24.04;64.44;99697.16;4407404;32;19996;-84
2021/08/01 01:38:47;;;;;;;;;;;;;;;24.47;62.65;99692.19;4407272;32;20029;-85
2021/08/01 01:41:16;;;;;;;;;;;;;;;24.79;61.70;99675.44;4393462;32;20047;-85
2021/08/01 01:43:43;;;;;;;;;;;;;;;24.92;61.20;99651.22;4393380;32;20387;-85
2021/08/01 01:46:11;;;;;;;;;;;;;;;25.20;60.59;99647.25;4407385;32;19961;-85
2021/08/01 01:48:54;;;;;;;;;;;;;;;25.48;59.57;99637.84;4407405;32;20025;-85
2021/08/01 01:51:21;;;;;;;;;;;;;;;25.29;59.58;99634.91;4393392;32;20064;-84
2021/08/01 01:53:49;;;;;;;;;;;;;;;25.29;58.67;99662.66;4407375;32;20020;-84
2021/08/01 01:56:16;;;;;;;;;;;;;;;25.33;57.99;99669.50;4407374;32;20000;-84
2021/08/01 01:58:43;;;;;;;;;;;;;;;25.31;59.51;99671.44;4407295;32;20052;-85
2021/08/01 02:01:11;;;;;;;;;;;;;;;25.52;58.62;99678.81;4407094;32;20048;-85
2021/08/01 02:03:38;;;;;;;;;;;;;;;25.53;59.37;99661.69;4407089;32;20077;-85
2021/08/01 02:06:04;;;;;;;;;;;;;;;25.60;59.58;99650.31;4407148;32;20037;-85
2021/08/01 02:08:43;;;;;;;;;;;;;;;25.72;59.26;99629.66;4393559;32;19977;-85
2021/08/01 02:11:09;;;;;;;;;;;;;;;25.82;59.19;99629.78;4407196;32;19997;-85
2021/08/01 02:13:45;;;;;;;;;;;;;;;25.24;60.25;99629.91;4407156;32;19985;-84
2021/08/01 02:16:12;;;;;;;;;;;;;;;25.37;60.08;99625.25;4407202;32;19992;-85
2021/08/01 02:18:44;;;;;;;;;;;;;;;24.62;63.75;99608.72;4407353;32;20030;-85
2021/08/01 02:21:11;;;;;;;;;;;;;;;24.93;61.33;99601.84;4393419;32;19996;-85
2021/08/01 02:23:42;;;;;;;;;;;;;;;25.02;60.63;99617.25;4406895;32;20009;-85
2021/08/01 02:26:11;;;;;;;;;;;;;;;25.03;61.02;99634.22;4393292;32;20122;-84
2021/08/01 02:28:38;;;;;;;;;;;;;;;24.78;62.68;99649.56;4407424;32;19981;-84
2021/08/01 02:31:05;;;;;;;;;;;;;;;24.46;63.97;99623.34;4406932;32;19989;-84
2021/08/01 02:33:32;;;;;;;;;;;;;;;24.62;64.25;99628.41;4407005;32;20034;-85
2021/08/01 02:36:00;;;;;;;;;;;;;;;24.83;63.23;99623.22;4406897;32;20023;-85
2021/08/01 02:38:28;;;;;;;;;;;;;;;24.97;63.16;99610.53;4406892;32;19977;-84
2021/08/01 02:40:57;;;;;;;;;;;;;;;24.99;60.92;99605.91;4393165;32;20012;-85
2021/08/01 02:43:27;;;;;;;;;;;;;;;24.70;61.16;99635.87;4393025;32;20343;-84
2021/08/01 02:45:54;;;;;;;;;;;;;;;23.81;68.05;99591.50;4406930;32;19987;-84
2021/08/01 02:48:22;;;;;;;;;;;;;;;24.08;65.87;99582.37;4406882;32;19993;-85
2021/08/01 02:50:56;;;;;;;;;;;;;;;24.11;65.00;99574.09;4406866;32;19981;-84
2021/08/01 02:53:23;;;;;;;;;;;;;;;23.94;65.57;99578.03;4406766;32;20048;-84
2021/08/01 02:55:51;;;;;;;;;;;;;;;23.85;65.95;99576.03;4405799;32;20426;-84
2021/08/01 02:58:18;;;;;;;;;;;;;;;23.95;65.95;99566.34;4406764;32;20031;-85
2021/08/01 03:00:47;;;;;;;;;;;;;;;23.44;66.91;99555.75;4406799;32;20556;-85
2021/08/01 03:03:18;;;;;;;;;;;;;;;23.24;68.67;99554.53;4392803;32;20668;-84
2021/08/01 03:05:45;;;;;;;;;;;;;;;23.13;68.91;99548.09;4397559;27;20331;-84
2021/08/01 03:08:15;;;;;;;;;;;;;;;22.72;70.18;99547.47;4392714;32;19992;-84
2021/08/01 03:10:45;;;;;;;;;;;;;;;22.61;70.69;99545.53;4392792;32;19981;-85
2021/08/01 03:13:12;;;;;;;;;;;;;;;22.79;70.40;99546.91;4392880;32;19981;-84
2021/08/01 03:15:39;;;;;;;;;;;;;;;22.95;69.65;99549.44;4406324;32;20309;-84
2021/08/01 03:18:05;;;;;;;;;;;;;;;23.09;70.21;99540.41;4406379;32;19977;-85
2021/08/01 03:20:32;;;;;;;;;;;;;;;23.62;67.32;99533.00;4392859;32;20048;-84
2021/08/01 03:22:59;;;;;;;;;;;;;;;23.42;67.80;99541.63;4392660;32;19994;-84
2021/08/01 03:25:26;;;;;;;;;;;;;;;23.62;67.34;99537.47;4411411;26;19981;-84
2021/08/01 03:27:53;;;;;;;;;;;;;;;23.60;66.65;99548.31;4392749;32;19973;-84
2021/08/01 03:30:19;;;;;;;;;;;;;;;23.31;67.70;99545.94;4406387;32;20004;-84
2021/08/01 03:32:46;;;;;;;;;;;;;;;23.43;67.23;99549.56;4406378;32;20001;-84
2021/08/01 03:35:13;;;;;;;;;;;;;;;22.32;72.24;99542.16;4392693;32;20008;-84
2021/08/01 03:37:40;;;;;;;;;;;;;;;22.86;70.44;99545.53;4406048;32;19973;-84
2021/08/01 03:40:07;;;;;;;;;;;;;;;22.73;71.63;99543.81;4406260;32;19977;-84
2021/08/01 03:42:45;;;;;;;;;;;;;;;23.35;69.26;99535.84;4392370;32;20016;-84
2021/08/01 03:45:12;;;;;;;;;;;;;;;23.56;68.60;99536.13;4393209;32;19969;-84
2021/08/01 03:47:39;;;;;;;;;;;;;;;23.64;68.24;99522.97;4406312;32;19982;-84
2021/08/01 03:50:06;;;;;;;;;;;;;;;23.25;70.46;99524.94;4392358;32;20378;-85
2021/08/01 03:52:32;;;;;;;;;;;;;;;22.75;73.15;99513.28;4406273;32;19977;-85
2021/08/01 03:55:02;;;;;;;;;;;;;;;23.67;69.90;99503.13;4406056;32;19992;-84
2021/08/01 03:57:29;;;;;;;;;;;;;;;23.49;70.66;99498.16;4406266;32;19999;-85
2021/08/01 03:59:56;;;;;;;;;;;;;;;23.11;72.16;99500.94;4406463;32;20001;-85
2021/08/01 04:02:23;;;;;;;;;;;;;;;22.95;72.25;99495.00;4407508;32;20031;-85
2021/08/01 04:04:49;;;;;;;;;;;;;;;23.23;71.90;99493.84;4406225;32;20365;-85
2021/08/01 04:07:16;;;;;;;;;;;;;;;23.82;70.20;99498.47;4392869;32;20048;-85
2021/08/01 04:09:43;;;;;;;;;;;;;;;24.13;68.52;99499.72;4395510;32;20032;-85
2021/08/01 04:12:10;;;;;;;;;;;;;;;24.32;67.60;99499.16;4411266;32;19977;-86
2021/08/01 04:14:37;;;;;;;;;;;;;;;24.32;67.46;99494.62;4398669;32;19992;-84
2021/08/01 04:17:04;;;;;;;;;;;;;;;24.41;67.03;99504.69;4401687;32;20656;-85
2021/08/01 04:19:33;;;;;;;;;;;;;;;24.40;67.11;99497.59;4441209;26;19969;-86
2021/08/01 04:22:02;;;;;;;;;;;;;;;24.36;67.29;99498.81;4401835;32;20020;-87
2021/08/01 04:24:29;;;;;;;;;;;;;;;24.12;68.30;99488.13;4398920;32;19995;-86
2021/08/01 04:26:58;;;;;;;;;;;;;;;23.15;71.68;99489.06;4412457;32;19975;-86
2021/08/01 04:29:25;;;;;;;;;;;;;;;23.80;69.21;99479.84;4413892;32;20013;-86
2021/08/01 04:31:53;;;;;;;;;;;;;;;24.27;67.07;99475.37;4402214;32;19986;-87
2021/08/01 04:34:23;;;;;;;;;;;;;;;23.35;70.37;99475.06;4413928;32;20052;-86
2021/08/01 04:36:50;;;;;;;;;;;;;;;23.67;69.00;99471.81;4400060;32;20028;-86
2021/08/01 04:39:17;;;;;;;;;;;;;;;23.48;69.58;99468.81;4399658;32;19990;-86
2021/08/01 04:41:44;;;;;;;;;;;;;;;23.82;68.90;99477.03;4402564;32;19980;-87
2021/08/01 04:44:11;;;;;;;;;;;;;;;23.94;68.55;99468.94;4402581;32;20742;-86
2021/08/01 04:46:44;;;;;;;;;;;;;;;23.56;70.30;99475.31;4406744;32;19985;-87
2021/08/01 04:49:32;;;;;;;;;;;;;;;23.58;70.03;99467.13;4405209;32;19993;-86
2021/08/01 04:52:00;;;;;;;;;;;;;;;23.53;69.86;99471.97;4403827;32;19965;-86
2021/08/01 04:54:31;;;;;;;;;;;;;;;23.52;69.99;99478.31;4408330;32;19953;-87
2021/08/01 04:56:59;;;;;;;;;;;;;;;23.21;70.20;99475.22;4418805;32;19958;-87
2021/08/01 04:59:28;;;;;;;;;;;;;;;23.12;71.02;99475.91;4405638;32;19961;-86
2021/08/01 05:02:02;;;;;;;;;;;;;;;23.90;68.72;99482.69;4406323;32;20017;-87
2021/08/01 05:04:34;;;;;;;;;;;;;;;23.55;69.32;99489.66;4408747;32;19978;-87
2021/08/01 05:07:10;;;;;;;;;;;;;;;24.37;66.86;99489.78;4395641;32;19964;-86
2021/08/01 05:09:53;;;;;;;;;;;;;;;23.70;68.81;99501.09;4409225;32;20049;-86
2021/08/01 05:12:20;;;;;;;;;;;;;;;23.69;68.58;99498.53;4409235;32;19995;-87
2021/08/01 05:14:51;;;;;;;;;;;;;;;23.80;68.24;99502.16;4406166;32;20048;-87
2021/08/01 05:17:21;;;;;;;;;;;;;;;23.75;68.38;99498.09;4406796;32;19966;-87
2021/08/01 05:19:51;;;;;;;;;;;;;;;23.51;69.33;99490.87;4405168;32;20004;-87
2021/08/01 05:22:19;;;;;;;;;;;;;;;23.59;69.67;99495.69;4407279;32;19976;-87
2021/08/01 05:24:52;;;;;;;;;;;;;;;23.68;69.17;99492.31;4408843;32;19964;-87
2021/08/01 05:27:34;;;;;;;;;;;;;;;23.91;67.96;99495.09;4407430;32;20656;-87
2021/08/01 05:30:01;;;;;;;;;;;;;;;24.29;66.85;99499.38;4404807;32;19992;-87
2021/08/01 05:32:33;;;;;;;;;;;;;;;24.90;65.48;99484.72;4403978;32;19981;-87
2021/08/01 05:35:02;;;;;;;;;;;;;;;24.79;65.98;99483.88;4403461;32;20015;-87
2021/08/01 05:37:34;;;;;;;;;;;;;;;24.87;65.18;99470.69;4414545;32;19953;-88
2021/08/01 05:40:17;;;;;;;;;;;;;;;24.54;66.03;99455.44;4403660;32;20339;-88
2021/08/01 05:42:46;;;;;;;;;;;;;;;24.50;66.72;99467.37;4417238;32;19985;-87
2021/08/01 05:45:20;;;;;;;;;;;;;;;24.92;66.11;99461.28;4405589;32;19954;-88
2021/08/01 05:47:52;;;;;;;;;;;;;;;25.57;63.89;99473.03;4408123;32;19950;-87
2021/08/01 05:50:28;;;;;;;;;;;;;;;26.94;59.49;99470.34;4421349;32;19954;-87
2021/08/01 05:53:25;;;;;;;;;;;;;;;;;;;;;
2021/08/01 05:56:17;;;;;;;;;;;;;;;26.48;58.61;99471.66;4410326;32;20002;-89
2021/08/01 05:58:57;;;;;;;;;;;;;;;26.13;60.04;99457.69;4407553;32;19984;-88
2021/08/01 06:02:35;;;;;;;;;;;;;;;26.43;57.05;99463.09;4421168;32;19954;-88
2021/08/01 06:05:49;;;;;;;;;;;;;;;25.59;60.49;99473.78;4423698;32;20041;-89
2021/08/01 06:09:11;;;;;;;;;;;;;;;25.49;60.70;99471.97;4388062;32;19950;-87
2021/08/01 06:12:31;;;;;;;;;;;;;;;25.18;62.91;99449.41;4392113;32;19970;-87
2021/08/01 06:18:21;;;;;;;;;;;;;;;25.06;61.76;99448.56;4388029;32;20869;-88
2021/08/01 06:21:18;;;;;;;;;;;;;;;25.27;61.95;99456.75;4388971;32;20769;-87
2021/08/01 06:24:03;;;;;;;;;;;;;;;25.11;62.27;99449.03;4378207;32;20006;-89
2021/08/01 06:26:37;;;;;;;;;;;;;;;26.01;59.77;99452.34;4388430;32;19992;-88
2021/08/01 06:29:09;;;;;;;;;;;;;;;26.68;58.63;99452.94;4386119;32;19977;-88
2021/08/01 06:31:42;;;;;;;;;;;;;;;27.00;58.29;99473.47;4383374;32;19968;-89
2021/08/01 06:34:13;;;;;;;;;;;;;;;26.83;56.96;99459.66;4385211;32;19959;-88
2021/08/01 06:36:51;;;;;;;;;;;;;;;26.95;56.48;99460.41;4389393;32;19974;-87
2021/08/01 06:39:27;;;;;;;;;;;;;;;27.36;55.44;99445.94;4391859;32;20021;-88
2021/08/01 06:42:07;;;;;;;;;;;;;;;27.58;54.38;99455.59;4387350;32;19989;-88
2021/08/01 06:45:02;;;;;;;;;;;;;;;27.85;55.13;99460.37;4408753;32;19985;-88
2021/08/01 06:52:12;;;;;;;;;;;;;;;28.48;51.39;99446.34;4362282;32;20095;-87
2021/08/01 06:57:41;;;;;;;;;;;;;;;27.64;53.86;99419.13;4651731;27;20010;-88
2021/08/01 07:04:24;;;;;;;;;;;;;;;25.25;60.50;99356.56;4303102;33;20070;-88
2021/08/01 07:07:54;;;;;;;;;;;;;;;25.12;60.74;99319.91;4303491;33;19999;-86
2021/08/01 07:17:47;;;;;;;;;;;;;;;24.68;63.04;99337.00;4295739;33;19988;-88
2021/08/01 07:20:43;;;;;;;;;;;;;;;24.80;62.43;99362.03;4325855;33;20023;-88
2021/08/01 07:23:34;;;;;;;;;;;;;;;25.09;61.82;99387.38;4343185;33;19964;-88
2021/08/01 07:26:19;;;;;;;;;;;;;;;25.85;60.31;99384.66;4379042;32;19977;-87
2021/08/01 07:29:26;;;;;;;;;;;;;;;26.25;59.74;99382.06;4378520;32;19967;-88
2021/08/01 07:32:03;;;;;;;;;;;;;;;26.10;60.06;99394.19;4377060;32;19981;-88
2021/08/01 07:34:45;;;;;;;;;;;;;;;26.32;59.15;99395.00;4375173;32;19981;-88
2021/08/01 07:37:37;;;;;;;;;;;;;;;25.90;61.06;99403.97;4389405;32;20010;-86
2021/08/01 07:40:32;;;;;;;;;;;;;;;26.36;60.37;99389.22;4375705;32;19968;-87
2021/08/01 08:53:05;;;;;;;;;;;;;;;32.17;40.79;99384.69;4542834;27;19954;-87
2021/08/01 10:14:09;;;;;;;;;;;;;;;39.44;27.39;99210.81;4437661;32;19963;-87
2021/08/01 10:16:39;;;;;;;;;;;;;;;39.44;27.93;99195.16;4419289;32;19957;-88
2021/08/01 10:19:06;;;;;;;;;;;;;;;38.42;28.52;99202.63;4435359;32;19976;-87
2021/08/01 10:21:57;;;;;;;;;;;;;;;36.44;30.52;99196.94;4424683;32;19964;-88
2021/08/01 10:25:33;;;;;;;;;;;;;;;;;;;;;
2021/08/01 10:37:28;;;;;;;;;;;;;;;37.82;30.00;99208.25;4361325;33;20013;-86
2021/08/01 10:40:24;;;;;;;;;;;;;;;36.69;31.72;99218.31;4348163;32;20022;-87
2021/08/01 10:43:45;;;;;;;;;;;;;;;37.56;29.41;99209.13;4387826;32;19976;-87
2021/08/01 15:15:32;;;;;;;;;;;;;;;;;;;;;
2021/08/01 15:18:41;;;;;;;;;;;;;;;25.72;62.93;99335.56;4362592;32;20002;-89
2021/08/01 15:21:16;;;;;;;;;;;;;;;25.92;63.09;99369.72;4370205;27;20402;-89
2021/08/01 15:24:06;;;;;;;;;;;;;;;25.88;61.93;99370.09;4362163;32;19986;-87
2021/08/01 15:26:52;;;;;;;;;;;;;;;25.93;61.68;99366.03;4376024;32;20039;-89
2021/08/01 15:29:22;;;;;;;;;;;;;;;25.93;62.40;99366.03;4377161;32;19982;-89
2021/08/01 15:31:56;;;;;;;;;;;;;;;26.32;59.62;99368.91;4377475;32;20038;-89
2021/08/01 15:34:27;;;;;;;;;;;;;;;25.89;61.50;99374.50;4362563;32;20410;-89
2021/08/01 15:37:12;;;;;;;;;;;;;;;26.08;60.76;99377.31;4375642;32;20404;-88
2021/08/01 15:39:45;;;;;;;;;;;;;;;25.96;61.09;99397.19;4376563;32;20337;-89
2021/08/01 15:42:24;;;;;;;;;;;;;;;26.26;60.22;99382.94;4363169;32;19998;-88
2021/08/01 15:44:59;;;;;;;;;;;;;;;25.86;61.84;99366.69;4376455;32;19997;-89
2021/08/01 15:47:59;;;;;;;;;;;;;;;;;;;;;
2021/08/01 15:50:47;;;;;;;;;;;;;;;25.94;63.58;99448.47;4342412;33;20026;-89
2021/08/01 15:53:44;;;;;;;;;;;;;;;26.24;63.31;99495.31;4350678;32;19958;-89
2021/08/01 15:59:58;;;;;;;;;;;;;;;26.85;60.81;99552.00;4338955;33;19995;-86
2021/08/01 16:52:30;;;;;;;;;;;;;;;23.26;69.23;99534.69;4469585;26;20012;-88
2021/08/01 16:55:28;;;;;;;;;;;;;;;23.32;69.21;99519.97;4404312;32;19989;-89
2021/08/01 16:58:35;;;;;;;;;;;;;;;;;;;;;
2021/08/01 17:01:06;;;;;;;;;;;;;;;22.60;69.92;99536.63;4407869;32;20006;-88
2021/08/01 17:03:50;;;;;;;;;;;;;;;23.24;67.72;99574.16;4394459;32;20000;-89
2021/08/01 17:09:32;;;;;;;;;;;;;;;23.10;67.14;99622.50;4407666;32;20031;-88
2021/08/01 17:51:02;;;;;;;;;;;;;;;22.28;69.23;99519.25;4444159;27;20033;-87
2021/08/01 17:54:07;;;;;;;;;;;;;;;21.78;70.29;99529.69;4353283;32;19978;-87
2021/08/01 17:57:06;;;;;;;;;;;;;;;;;;;;;
2021/08/01 18:00:01;;;;;;;;;;;;;;;22.59;67.21;99520.66;4377186;32;20041;-88
2021/08/01 18:03:07;;;;;;;;;;;;;;;22.91;66.51;99513.06;4364458;32;19984;-87
2021/08/01 18:05:55;;;;;;;;;;;;;;;21.85;68.60;99509.59;4363326;32;19970;-86
2021/08/01 18:09:23;;;;;;;;;;;;;;;23.07;66.21;99494.12;4300683;33;19991;-87
2021/08/01 18:15:34;;;;;;;;;;;;;;;;;;;;;
2021/08/01 18:18:30;;;;;;;;;;;;;;;23.55;63.98;99519.16;4297136;33;20122;-87
2021/08/01 18:21:03;;;;;;;;;;;;;;;23.06;64.82;99513.81;4300861;33;19988;-87
2021/08/01 18:24:23;;;;;;;;;;;;;;;23.38;63.35;99518.69;4299954;33;19996;-87
2021/08/01 18:27:27;;;;;;;;;;;;;;;23.04;64.10;99539.88;4296037;33;20403;-87
2021/08/01 18:30:15;;;;;;;;;;;;;;;23.28;63.08;99543.47;4299893;33;20526;-87
2021/08/01 18:32:46;;;;;;;;;;;;;;;22.39;65.72;99547.00;4325018;32;19992;-86
2021/08/01 18:35:16;;;;;;;;;;;;;;;22.62;64.99;99555.28;4363184;32;20062;-88
2021/08/01 18:38:16;;;;;;;;;;;;;;;22.60;64.23;99557.22;4365563;32;20325;-87
2021/08/01 18:41:05;;;;;;;;;;;;;;;22.62;64.78;99584.75;4363294;32;20408;-87
2021/08/01 18:44:17;;;;;;;;;;;;;;;;;;;;;
2021/08/01 18:46:58;;;;;;;;;;;;;;;22.37;65.61;99580.19;4376467;32;20000;-87
2021/08/01 18:49:26;;;;;;;;;;;;;;;22.63;64.50;99589.13;4376775;32;20472;-87
2021/08/01 18:51:58;;;;;;;;;;;;;;;22.43;63.63;99595.81;4366194;32;20383;-86
2021/08/01 18:54:42;;;;;;;;;;;;;;;22.08;65.91;99598.16;4376572;32;20470;-85
2021/08/01 18:57:31;;;;;;;;;;;;;;;22.10;65.82;99586.41;4376690;32;19994;-88
2021/08/01 19:00:03;;;;;;;;;;;;;;;22.03;66.10;99593.12;4376441;32;19986;-86
2021/08/01 19:02:42;;;;;;;;;;;;;;;21.86;66.50;99591.53;4375357;32;19980;-87
2021/08/01 19:05:12;;;;;;;;;;;;;;;20.53;70.85;99586.47;4387701;32;20545;-86
2021/08/01 19:07:47;;;;;;;;;;;;;;;21.02;68.65;99588.84;4376496;32;20324;-87
2021/08/01 19:10:19;;;;;;;;;;;;;;;21.27;67.49;99591.72;4375136;32;20014;-87
2021/08/01 19:13:16;;;;;;;;;;;;;;;21.12;67.14;99607.81;4376061;32;19954;-87
2021/08/01 19:15:54;;;;;;;;;;;;;;;20.63;68.31;99601.84;4376492;32;19994;-88
2021/08/01 19:18:22;;;;;;;;;;;;;;;20.61;69.69;99592.22;4376274;32;19997;-87
2021/08/01 19:21:08;;;;;;;;;;;;;;;20.84;68.72;99604.19;4387488;32;20017;-87
2021/08/01 19:23:49;;;;;;;;;;;;;;;20.54;69.30;99615.75;4375104;32;19990;-87
2021/08/01 19:26:28;;;;;;;;;;;;;;;20.49;69.96;99623.12;4375509;32;20336;-87
2021/08/01 19:28:57;;;;;;;;;;;;;;;20.58;69.83;99622.63;4376504;32;20494;-87
2021/08/01 19:31:32;;;;;;;;;;;;;;;20.67;68.52;99631.88;4387332;32;20383;-85
2021/08/01 19:34:08;;;;;;;;;;;;;;;20.76;67.26;99644.69;4375243;32;20036;-88
2021/08/01 19:36:38;;;;;;;;;;;;;;;20.35;69.79;99641.75;4375126;32;19988;-87
2021/08/01 19:39:23;;;;;;;;;;;;;;;20.96;66.99;99646.16;4374607;32;20045;-87
2021/08/01 19:41:51;;;;;;;;;;;;;;;20.83;67.72;99648.72;4375525;32;20002;-86
2021/08/01 19:44:19;;;;;;;;;;;;;;;20.55;68.87;99648.63;4374770;32;20344;-84
2021/08/01 19:46:47;;;;;;;;;;;;;;;20.31;69.25;99635.75;4375954;32;19974;-87
2021/08/01 19:49:19;;;;;;;;;;;;;;;20.63;68.08;99643.72;4375034;32;19986;-86
2021/08/01 19:51:46;;;;;;;;;;;;;;;20.56;68.87;99645.88;4377276;32;19997;-87
2021/08/01 19:54:13;;;;;;;;;;;;;;;20.32;69.35;99642.78;4377348;32;20020;-85
2021/08/01 19:56:48;;;;;;;;;;;;;;;20.41;68.99;99646.72;4390877;32;20089;-86
2021/08/01 19:59:17;;;;;;;;;;;;;;;20.37;68.38;99658.53;4391326;32;20830;-87
2021/08/01 20:01:45;;;;;;;;;;;;;;;20.67;68.04;99661.25;4377286;32;20336;-87
2021/08/01 20:04:12;;;;;;;;;;;;;;;20.20;69.31;99665.69;4377096;32;20339;-86
2021/08/01 20:06:44;;;;;;;;;;;;;;;20.53;68.03;99672.75;4389589;32;20034;-87
2021/08/01 20:09:21;;;;;;;;;;;;;;;20.52;67.54;99681.69;4390757;32;19986;-85
2021/08/01 20:11:48;;;;;;;;;;;;;;;20.72;67.46;99682.34;4390851;32;20023;-87
2021/08/01 20:14:14;;;;;;;;;;;;;;;20.62;67.50;99685.56;4377212;32;19977;-86
2021/08/01 20:16:41;;;;;;;;;;;;;;;20.19;69.32;99696.00;4390713;32;20365;-87
2021/08/01 20:19:09;;;;;;;;;;;;;;;20.21;68.62;99690.59;4377169;32;19982;-86
2021/08/01 20:21:38;;;;;;;;;;;;;;;20.04;69.46;99690.66;4390843;32;19995;-87
2021/08/01 20:24:11;;;;;;;;;;;;;;;20.24;68.58;99703.75;4390542;32;19986;-87
2021/08/01 20:26:45;;;;;;;;;;;;;;;20.26;68.53;99707.16;4376758;32;19989;-86
2021/08/01 20:29:34;;;;;;;;;;;;;;;20.66;65.96;99704.06;4389254;32;20343;-87
2021/08/01 20:32:06;;;;;;;;;;;;;;;20.57;66.70;99710.78;4373871;32;19992;-87
2021/08/01 20:34:34;;;;;;;;;;;;;;;20.69;65.92;99715.41;4374162;32;20324;-87
2021/08/01 20:37:15;;;;;;;;;;;;;;;20.92;65.93;99721.22;4348041;32;19966;-87
2021/08/01 20:39:42;;;;;;;;;;;;;;;20.67;66.52;99727.13;4375327;32;19983;-87
2021/08/01 20:42:09;;;;;;;;;;;;;;;20.55;67.00;99731.34;4375332;32;20356;-86
2021/08/01 20:44:36;;;;;;;;;;;;;;;20.72;66.18;99736.59;4373802;32;20359;-87
2021/08/01 20:47:07;;;;;;;;;;;;;;;20.53;66.83;99746.59;4375090;32;20276;-87
2021/08/01 20:49:41;;;;;;;;;;;;;;;20.52;66.21;99728.84;4375557;32;19994;-86
2021/08/01 20:52:11;;;;;;;;;;;;;;;20.79;65.92;99734.41;4364118;32;19989;-87
2021/08/01 20:54:40;;;;;;;;;;;;;;;20.39;66.99;99736.69;4377454;32;20041;-86
2021/08/01 20:57:09;;;;;;;;;;;;;;;20.76;65.72;99742.59;4363736;32;19984;-86
2021/08/01 20:59:35;;;;;;;;;;;;;;;20.66;64.90;99738.75;4376288;32;20380;-87
2021/08/01 21:02:02;;;;;;;;;;;;;;;20.30;67.16;99747.88;4377875;32;20004;-87
2021/08/01 21:05:01;;;;;;;;;;;;;;;20.67;65.54;99737.78;4377596;32;19978;-87
2021/08/01 21:07:30;;;;;;;;;;;;;;;20.57;66.05;99742.81;4377125;32;19986;-84
2021/08/01 21:10:05;;;;;;;;;;;;;;;20.58;65.76;99736.50;4364960;32;19990;-86
2021/08/01 21:12:35;;;;;;;;;;;;;;;20.63;65.55;99740.66;4363558;32;19970;-87
2021/08/01 21:15:03;;;;;;;;;;;;;;;20.05;67.81;99725.22;4375972;32;20409;-87
2021/08/01 21:17:33;;;;;;;;;;;;;;;20.48;65.21;99721.97;4363790;32;19990;-87
2021/08/01 21:20:10;;;;;;;;;;;;;;;20.39;65.46;99724.22;4364261;32;19974;-86
2021/08/01 21:22:49;;;;;;;;;;;;;;;20.54;65.56;99727.84;4377161;32;19986;-87
2021/08/01 21:25:16;;;;;;;;;;;;;;;20.43;65.90;99728.41;4363691;32;20032;-87
2021/08/01 21:27:43;;;;;;;;;;;;;;;20.63;65.08;99729.13;4363434;32;19966;-85
2021/08/01 21:30:10;;;;;;;;;;;;;;;20.55;64.82;99728.69;4376941;32;19982;-87
2021/08/01 21:32:38;;;;;;;;;;;;;;;20.24;66.05;99724.22;4363617;32;20002;-87
2021/08/01 21:35:12;;;;;;;;;;;;;;;20.25;65.48;99731.28;4363873;32;20004;-83
2021/08/01 21:37:39;;;;;;;;;;;;;;;19.60;67.90;99732.09;4377296;32;19978;-87
2021/08/01 21:40:07;;;;;;;;;;;;;;;19.77;67.09;99741.03;4377126;32;19993;-86
2021/08/01 21:43:05;;;;;;;;;;;;;;;19.72;67.18;99741.28;4377830;32;20020;-87
2021/08/01 21:45:32;;;;;;;;;;;;;;;19.77;67.23;99741.91;4363585;32;20332;-87
2021/08/01 21:47:59;;;;;;;;;;;;;;;20.19;65.53;99753.81;4377672;32;19978;-87
2021/08/01 21:50:27;;;;;;;;;;;;;;;20.26;64.52;99739.16;4377234;32;20006;-87
2021/08/01 21:53:00;;;;;;;;;;;;;;;20.29;64.36;99741.66;4363528;32;20005;-86
2021/08/01 21:55:31;;;;;;;;;;;;;;;19.96;64.87;99739.94;4376952;32;20024;-86
2021/08/01 21:57:58;;;;;;;;;;;;;;;19.94;66.59;99740.97;4377044;32;19993;-87
2021/08/01 22:00:27;;;;;;;;;;;;;;;20.47;64.32;99742.47;4363531;32;20333;-83
2021/08/01 22:03:09;;;;;;;;;;;;;;;20.39;64.43;99739.34;4376670;32;20212;-88
2021/08/01 22:05:38;;;;;;;;;;;;;;;20.30;64.69;99743.41;4376964;32;20310;-86
2021/08/01 22:08:09;;;;;;;;;;;;;;;20.60;63.38;99746.16;4363202;32;19970;-87
2021/08/01 22:10:36;;;;;;;;;;;;;;;20.64;62.97;99744.16;4363217;32;19981;-87
2021/08/01 22:13:03;;;;;;;;;;;;;;;20.39;64.09;99744.69;4376942;32;20001;-86
2021/08/01 22:15:54;;;;;;;;;;;;;;;20.51;61.97;99759.16;4363718;32;20044;-88
2021/08/01 22:18:21;;;;;;;;;;;;;;;20.66;62.93;99765.44;4363758;32;20000;-87
2021/08/01 22:20:48;;;;;;;;;;;;;;;20.53;63.54;99768.81;4363262;32;20057;-85
2021/08/01 22:23:15;;;;;;;;;;;;;;;20.47;62.84;99774.47;4375468;32;20379;-87
2021/08/01 22:25:47;;;;;;;;;;;;;;;20.68;61.95;99772.44;4375491;32;20454;-86
2021/08/01 22:28:15;;;;;;;;;;;;;;;20.39;61.89;99800.72;4377272;32;20028;-87
2021/08/01 22:30:44;;;;;;;;;;;;;;;20.52;63.08;99820.44;4376780;32;20021;-84
2021/08/01 22:33:30;;;;;;;;;;;;;;;20.19;64.00;99810.69;4376842;32;20403;-87
2021/08/01 22:36:00;;;;;;;;;;;;;;;20.51;63.34;99823.19;4376795;32;20137;-87
2021/08/01 22:38:29;;;;;;;;;;;;;;;20.53;62.37;99830.19;4363103;32;20005;-87
2021/08/01 22:40:57;;;;;;;;;;;;;;;20.29;62.65;99828.84;4363027;32;20044;-87
2021/08/01 22:43:24;;;;;;;;;;;;;;;20.59;61.79;99821.84;4376944;32;19986;-87
2021/08/01 22:45:51;;;;;;;;;;;;;;;20.51;61.20;99829.38;4362944;32;20028;-87